Deltaville, Virginia
Current Conditions -  °F | °C
As of 2:55 AM on Thursday 23 Oct 2014 (Local Time) from KW75 Reporting Station
Overcast Overcast  
Wind Chill: 54°   Ceiling: 3900
Heat Index: 54°   Visibility: 10mi
Dew Point: 45°   Wind: 13mph
Humidity: 73%   Direction: 320°NW
Pressure: 29.87"   Gusts: 23mph
Location:  37.56°N, 76.34°W
Report Text: KW75 230655Z AUTO 32011G20KT 290V350 10SM SCT027 BKN039 OVC049 12/07 A2987 RMK AO1 T01210074
Loading
Personal Weather Stations






























Interactive Weather Map
Tropical Storm Tracking
New forecast layout! Learn more

10-Day Weather Forecast

Advertisements
Track Severe Weather on mobile